createdAt,value
2023-05-25T00:01:59.320Z,159963.06
2023-05-25T00:04:30.823Z,159945.72
2023-05-25T00:06:58.546Z,159933.66
2023-05-25T00:09:27.012Z,159924.31
2023-05-25T00:11:55.322Z,159936.31
2023-05-25T00:14:23.523Z,159909.56
2023-05-25T00:16:51.609Z,159905.59
2023-05-25T00:19:20.132Z,159860.13
2023-05-25T00:21:48.766Z,159866.81
2023-05-25T00:24:17.369Z,159854.81
2023-05-25T00:26:45.357Z,159853.50
2023-05-25T00:29:15.092Z,159844.09
2023-05-25T00:31:43.381Z,159838.75
2023-05-25T00:34:11.662Z,159836.09
2023-05-25T00:36:39.770Z,159821.41
2023-05-25T00:39:08.331Z,159804.03
2023-05-25T00:41:44.329Z,159808.03
2023-05-25T00:44:15.739Z,159786.66
2023-05-25T00:46:53.242Z,159777.31
2023-05-25T00:49:25.075Z,159757.25
2023-05-25T00:51:54.237Z,159761.25
2023-05-25T00:54:22.754Z,159737.22
2023-05-25T00:56:58.049Z,159749.25
2023-05-25T00:59:41.476Z,159737.22
2023-05-25T01:02:11.422Z,159734.56
2023-05-25T01:04:46.115Z,159735.88
2023-05-25T01:07:19.761Z,159739.88
2023-05-25T01:09:50.372Z,159742.56
2023-05-25T01:12:18.962Z,159741.25
2023-05-25T01:14:48.617Z,159749.25
2023-05-25T01:17:17.166Z,159749.25
2023-05-25T01:19:51.953Z,159773.28
2023-05-25T01:22:33.172Z,159782.63
2023-05-25T01:25:09.996Z,159790.69
2023-05-25T01:27:46.547Z,159771.94
2023-05-25T01:30:16.885Z,159776.00
2023-05-25T01:32:45.792Z,159782.63
2023-05-25T01:35:14.207Z,159778.63
2023-05-25T01:37:50.166Z,159790.69
2023-05-25T01:40:18.681Z,159814.72
2023-05-25T01:42:47.040Z,159818.75
2023-05-25T01:45:15.310Z,159798.69
2023-05-25T01:48:00.373Z,159802.66
2023-05-25T01:50:37.116Z,159792.00
2023-05-25T01:53:09.452Z,159800.00
2023-05-25T01:55:43.393Z,159814.72
2023-05-25T01:58:14.226Z,159813.38
2023-05-25T02:00:42.503Z,159833.44
2023-05-25T02:03:11.247Z,159840.13
2023-05-25T02:05:42.421Z,159821.41
2023-05-25T02:08:10.763Z,159846.81
2023-05-25T02:10:39.198Z,159857.47
2023-05-25T02:13:07.218Z,159848.13
2023-05-25T02:15:35.884Z,159854.81
2023-05-25T02:18:06.160Z,159888.19
2023-05-25T02:20:36.428Z,159878.84
2023-05-25T02:23:04.891Z,159876.19
2023-05-25T02:25:32.851Z,159886.84
2023-05-25T02:28:01.440Z,159878.84
2023-05-25T02:30:29.876Z,159884.19
2023-05-25T02:32:59.414Z,159906.91
2023-05-25T02:35:27.445Z,159886.84
2023-05-25T02:37:55.330Z,159889.56
2023-05-25T02:40:23.775Z,159973.78
2023-05-25T02:42:51.803Z,159976.44
2023-05-25T02:45:19.694Z,160009.88
2023-05-25T02:47:47.360Z,159984.44
2023-05-25T02:50:17.601Z,160000.47
2023-05-25T02:52:48.268Z,159977.75
2023-05-25T02:55:19.048Z,159967.09
2023-05-25T02:57:47.812Z,159987.09
2023-05-25T03:00:30.310Z,160016.56
2023-05-25T03:02:58.520Z,160012.53
2023-05-25T03:05:27.916Z,160001.84
2023-05-25T03:07:56.431Z,160017.88
2023-05-25T03:10:24.701Z,160021.88
2023-05-25T03:12:54.440Z,160028.53
2023-05-25T03:15:23.287Z,160000.47
2023-05-25T03:17:53.982Z,159996.50
2023-05-25T03:20:24.742Z,159995.16
2023-05-25T03:22:55.090Z,160000.47
2023-05-25T03:25:22.931Z,160000.47
2023-05-25T03:27:54.577Z,159995.16
2023-05-25T03:30:26.135Z,159989.81
2023-05-25T03:32:54.759Z,160011.19
2023-05-25T03:35:23.326Z,160004.50
2023-05-25T03:37:51.336Z,160027.22
2023-05-25T03:40:19.974Z,160025.88
2023-05-25T03:42:48.685Z,160023.25
2023-05-25T03:45:16.414Z,160004.50
2023-05-25T03:47:45.604Z,160005.84
2023-05-25T03:50:13.932Z,160004.50
2023-05-25T03:52:42.923Z,160013.84
2023-05-25T03:55:11.326Z,160012.53
2023-05-25T03:57:39.996Z,160019.22
2023-05-25T04:00:11.192Z,160052.69
2023-05-25T04:02:43.851Z,160055.34
2023-05-25T04:05:12.139Z,160011.19
2023-05-25T04:07:40.995Z,160004.50
2023-05-25T04:10:09.507Z,160013.84
2023-05-25T04:12:37.579Z,160025.88
2023-05-25T04:15:09.055Z,160021.88
2023-05-25T04:17:47.402Z,160008.53
2023-05-25T04:20:15.504Z,160096.81
2023-05-25T04:22:45.033Z,160076.75
2023-05-25T04:25:13.549Z,160083.44
2023-05-25T04:27:42.365Z,160111.50
2023-05-25T04:30:11.944Z,160058.06
2023-05-25T04:32:49.708Z,160025.88
2023-05-25T04:35:33.257Z,160041.91
2023-05-25T04:38:03.221Z,160087.47
2023-05-25T04:40:33.618Z,160087.47
2023-05-25T04:43:02.345Z,160086.09
2023-05-25T04:45:32.244Z,160064.69
2023-05-25T04:48:02.290Z,160090.13
2023-05-25T04:50:30.504Z,160103.50
2023-05-25T04:52:58.758Z,160122.22
2023-05-25T04:55:26.643Z,160122.22
2023-05-25T04:57:55.372Z,160100.84
2023-05-25T05:00:24.537Z,160091.44
2023-05-25T05:05:31.168Z,160099.47
2023-05-25T05:08:03.888Z,160100.84
2023-05-25T05:10:32.159Z,160090.13
2023-05-25T05:13:00.889Z,160100.84
2023-05-25T05:15:29.306Z,160092.78
2023-05-25T05:17:57.776Z,160084.75
2023-05-25T05:20:26.474Z,160087.47
2023-05-25T05:22:55.106Z,160098.13
2023-05-25T05:25:23.058Z,160088.78
2023-05-25T05:27:51.557Z,160103.50
2023-05-25T05:30:25.360Z,160096.81
2023-05-25T05:32:54.085Z,160102.16
2023-05-25T05:35:24.003Z,160102.16
2023-05-25T05:37:59.209Z,160107.53
2023-05-25T05:40:28.437Z,160114.16
2023-05-25T05:42:57.126Z,160119.53
2023-05-25T05:45:25.130Z,160132.91
2023-05-25T05:47:53.639Z,160143.63
2023-05-25T05:50:22.816Z,160148.94
2023-05-25T05:52:51.328Z,160138.28
2023-05-25T05:55:21.256Z,160155.63
2023-05-25T05:57:52.222Z,160132.91
2023-05-25T06:00:21.081Z,160135.56
2023-05-25T06:02:52.114Z,160108.84
2023-05-25T06:05:22.558Z,160116.88
2023-05-25T06:07:53.173Z,160134.22
2023-05-25T06:10:23.001Z,160127.53
2023-05-25T06:12:53.333Z,160161.00
2023-05-25T06:15:22.384Z,160147.63
2023-05-25T06:17:53.083Z,160139.59
2023-05-25T06:20:22.497Z,160120.84
2023-05-25T06:22:51.153Z,160124.88
2023-05-25T06:25:20.767Z,160120.84
2023-05-25T06:27:49.055Z,160150.31
2023-05-25T06:30:17.279Z,160143.63
2023-05-25T06:32:46.061Z,160142.25
2023-05-25T06:35:19.925Z,160155.63
2023-05-25T06:37:52.578Z,160148.94
2023-05-25T06:40:22.573Z,160169.00
2023-05-25T06:42:55.566Z,160186.41
2023-05-25T06:45:43.476Z,160197.09
2023-05-25T06:48:11.930Z,160201.13
2023-05-25T06:50:40.481Z,160223.84
2023-05-25T06:53:08.992Z,160214.50
2023-05-25T06:55:37.090Z,160237.25
2023-05-25T06:58:05.392Z,160266.66
2023-05-25T07:00:33.271Z,160270.69
2023-05-25T07:03:01.965Z,160297.41
2023-05-25T07:05:30.146Z,160296.09
2023-05-25T07:07:58.373Z,160286.75
2023-05-25T07:10:26.384Z,160308.13
2023-05-25T07:12:54.835Z,160324.19
2023-05-25T07:15:23.420Z,160320.19
2023-05-25T07:17:51.563Z,160338.91
2023-05-25T07:20:19.475Z,160321.53
2023-05-25T07:22:48.108Z,160345.59
2023-05-25T07:25:16.487Z,160352.28
2023-05-25T07:27:48.843Z,160373.69
2023-05-25T07:30:17.273Z,160349.63
2023-05-25T07:32:46.041Z,160372.34
2023-05-25T07:35:13.929Z,160380.38
2023-05-25T07:37:42.441Z,160408.53
2023-05-25T07:40:11.152Z,160437.97
2023-05-25T07:42:39.319Z,160448.69
2023-05-25T07:45:08.019Z,160460.75
2023-05-25T07:47:37.306Z,160444.66
2023-05-25T07:50:05.792Z,160440.69
2023-05-25T07:52:34.185Z,160427.28
2023-05-25T07:55:02.291Z,160450.03
2023-05-25T07:57:30.423Z,160435.31
2023-05-25T07:59:58.324Z,160439.34
2023-05-25T08:02:26.984Z,160456.72
2023-05-25T08:04:55.068Z,160483.50
2023-05-25T08:07:25.101Z,160490.19
2023-05-25T08:09:53.328Z,160526.31
2023-05-25T08:12:38.463Z,160550.41
2023-05-25T08:15:10.097Z,160565.13
2023-05-25T08:17:38.239Z,160601.28
2023-05-25T08:20:09.252Z,160649.47
2023-05-25T08:22:37.956Z,160672.22
2023-05-25T08:25:07.316Z,160713.81
2023-05-25T08:27:36.575Z,160708.47
2023-05-25T08:30:08.786Z,160735.22
2023-05-25T08:32:37.440Z,160759.38
2023-05-25T08:35:05.839Z,160807.59
2023-05-25T08:37:34.790Z,160863.88
2023-05-25T08:40:03.114Z,160882.59
2023-05-25T08:42:31.490Z,160881.25
2023-05-25T08:44:59.896Z,160917.41
2023-05-25T08:47:33.960Z,160963.00
2023-05-25T08:50:04.202Z,161005.94
2023-05-25T08:52:34.010Z,160983.13
2023-05-25T08:55:05.644Z,161023.34
2023-05-25T08:57:44.489Z,161058.19
2023-05-25T09:00:15.721Z,161109.09
2023-05-25T09:03:02.177Z,161107.78
2023-05-25T09:05:30.091Z,161133.28
2023-05-25T09:07:59.056Z,161193.56
2023-05-25T09:10:28.160Z,161205.66
2023-05-25T09:12:57.701Z,161213.69
2023-05-25T09:15:25.792Z,161235.13
2023-05-25T09:17:54.156Z,161256.66
2023-05-25T09:20:22.379Z,161296.88
2023-05-25T09:22:50.533Z,161422.97
2023-05-25T09:25:22.524Z,161530.34
2023-05-25T09:27:51.209Z,161630.97
2023-05-25T09:30:19.104Z,161691.34
2023-05-25T09:32:47.203Z,161712.81
2023-05-25T09:35:16.028Z,161778.69
2023-05-25T09:37:45.642Z,161753.16
2023-05-25T09:40:15.543Z,161718.22
2023-05-25T09:42:45.870Z,161712.81
2023-05-25T09:45:13.794Z,161708.81
2023-05-25T09:47:42.417Z,161726.25
2023-05-25T09:50:11.984Z,161737.06
2023-05-25T09:52:40.164Z,161769.25
2023-05-25T09:55:10.842Z,161765.25
2023-05-25T09:57:39.356Z,161742.44
2023-05-25T10:00:09.966Z,161778.69
2023-05-25T10:02:42.267Z,161786.75
2023-05-25T10:05:10.429Z,161780.03
2023-05-25T10:07:40.766Z,161790.75
2023-05-25T10:10:09.031Z,161767.94
2023-05-25T10:12:38.239Z,161784.06
2023-05-25T10:15:07.800Z,161796.13
2023-05-25T10:17:36.959Z,161792.13
2023-05-25T10:20:08.275Z,161769.25
2023-05-25T10:22:41.755Z,161692.75
2023-05-25T10:25:09.726Z,161698.06
2023-05-25T10:28:07.513Z,161653.78
2023-05-25T10:30:37.475Z,161617.56
2023-05-25T10:33:06.965Z,161593.41
2023-05-25T10:35:46.767Z,161543.78
2023-05-25T10:38:31.727Z,161472.63
2023-05-25T10:41:00.272Z,161482.00
2023-05-25T10:43:28.860Z,161463.19
2023-05-25T10:45:57.611Z,161439.06
2023-05-25T10:48:36.764Z,161445.78
2023-05-25T10:51:05.373Z,161410.88
2023-05-25T10:53:34.153Z,161384.06
2023-05-25T10:56:07.727Z,161409.56
2023-05-25T10:58:36.851Z,161401.50
2023-05-25T11:01:09.364Z,161402.84
2023-05-25T11:04:16.343Z,161390.75
2023-05-25T11:06:47.771Z,161389.44
2023-05-25T11:09:27.243Z,161396.13
2023-05-25T11:12:02.185Z,161390.75
2023-05-25T11:14:31.962Z,161405.50
2023-05-25T11:17:15.789Z,161432.34
2023-05-25T11:19:44.844Z,161437.72
2023-05-25T11:22:24.550Z,161472.63
2023-05-25T11:24:54.193Z,161508.88
2023-05-25T11:27:25.959Z,161520.91
2023-05-25T11:29:56.822Z,161534.34
2023-05-25T11:32:29.127Z,161589.38
2023-05-25T11:34:58.795Z,161622.94
2023-05-25T11:37:31.908Z,161671.25
2023-05-25T11:40:00.259Z,161710.16
2023-05-25T11:42:28.686Z,161761.22
2023-05-25T11:44:57.489Z,161806.88
2023-05-25T11:47:26.149Z,161852.53
2023-05-25T11:49:56.889Z,161867.28
2023-05-25T11:52:24.696Z,161870.00
2023-05-25T11:54:53.519Z,161892.81
2023-05-25T11:57:25.476Z,161929.06
2023-05-25T11:59:56.183Z,161934.47
2023-05-25T12:02:24.532Z,161966.72
2023-05-25T12:04:57.611Z,162043.28
2023-05-25T12:07:26.735Z,162084.94
2023-05-25T12:10:15.377Z,162133.31
2023-05-25T12:12:44.756Z,162185.75
2023-05-25T12:15:20.485Z,162234.13
2023-05-25T12:17:49.434Z,162305.34
2023-05-25T12:20:19.445Z,162342.97
2023-05-25T12:22:47.661Z,162337.63
2023-05-25T12:25:20.045Z,162423.72
2023-05-25T12:27:48.055Z,162464.00
2023-05-25T12:30:16.605Z,162484.19
2023-05-25T12:33:14.864Z,162465.41
2023-05-25T12:35:47.988Z,162504.38
2023-05-25T12:38:18.051Z,162512.44
2023-05-25T12:40:46.709Z,162539.34
2023-05-25T12:43:15.437Z,162568.91
2023-05-25T12:45:44.040Z,162570.25
2023-05-25T12:48:12.290Z,162571.63
2023-05-25T12:50:57.989Z,162597.22
2023-05-25T12:53:27.665Z,162594.53
2023-05-25T12:56:03.649Z,162574.31
2023-05-25T12:58:31.888Z,162555.47
2023-05-25T13:01:01.134Z,162601.25
2023-05-25T13:03:29.508Z,162555.47
2023-05-25T13:06:02.732Z,162589.09
2023-05-25T13:08:30.658Z,162616.06
2023-05-25T13:10:59.484Z,162624.13
2023-05-25T13:13:27.548Z,162644.28
2023-05-25T13:15:55.985Z,162628.16
2023-05-25T13:18:23.832Z,162634.84
2023-05-25T13:20:54.306Z,162585.03
2023-05-25T13:23:24.634Z,162585.03
2023-05-25T13:25:52.975Z,162550.13
2023-05-25T13:28:21.012Z,162536.66
2023-05-25T13:30:49.475Z,162531.28
2023-05-25T13:33:17.742Z,162551.44
2023-05-25T13:35:58.823Z,162547.41
2023-05-25T13:38:27.455Z,162547.41
2023-05-25T13:40:57.540Z,162572.97
2023-05-25T13:43:25.962Z,162523.22
2023-05-25T13:45:54.882Z,162548.72
2023-05-25T13:48:23.159Z,162582.38
2023-05-25T13:50:52.088Z,162591.75
2023-05-25T13:53:20.034Z,162620.06
2023-05-25T13:55:49.305Z,162632.19
2023-05-25T13:58:17.620Z,162621.44
2023-05-25T14:00:46.013Z,162602.59
2023-05-25T14:03:14.479Z,162621.44
2023-05-25T14:05:43.710Z,162640.25
2023-05-25T14:08:12.878Z,162641.56
2023-05-25T14:10:41.376Z,162653.69
2023-05-25T14:13:09.197Z,162621.44
2023-05-25T14:15:37.806Z,162609.31
2023-05-25T14:18:06.060Z,162614.72
2023-05-25T14:20:37.394Z,162613.31
2023-05-25T14:23:08.735Z,162614.72
2023-05-25T14:25:38.638Z,162640.25
2023-05-25T14:28:06.496Z,162652.34
2023-05-25T14:30:34.854Z,162656.38
2023-05-25T14:33:02.650Z,162626.78
2023-05-25T14:35:31.359Z,162617.38
2023-05-25T14:37:59.347Z,162613.31
2023-05-25T14:40:27.728Z,162591.75
2023-05-25T14:42:55.925Z,162605.28
2023-05-25T14:45:24.289Z,162637.56
2023-05-25T14:48:00.786Z,162638.91
2023-05-25T14:50:36.486Z,162634.84
2023-05-25T14:53:04.215Z,162655.03
2023-05-25T14:55:32.839Z,162636.25
2023-05-25T14:58:00.663Z,162665.81
2023-05-25T15:00:29.449Z,162671.22
2023-05-25T15:02:57.427Z,162671.22
2023-05-25T15:05:26.624Z,162667.16
2023-05-25T15:07:54.476Z,162667.16
2023-05-25T15:10:23.143Z,162629.50
2023-05-25T15:12:50.839Z,162644.28
2023-05-25T15:15:19.031Z,162622.78
2023-05-25T15:17:47.143Z,162613.31
2023-05-25T15:20:15.635Z,162612.00
2023-05-25T15:22:43.617Z,162579.69
2023-05-25T15:25:13.639Z,162555.47
2023-05-25T15:27:44.669Z,162556.78
2023-05-25T15:30:13.261Z,162564.91
2023-05-25T15:32:41.232Z,162575.63
2023-05-25T15:35:09.992Z,162581.03
2023-05-25T15:37:38.268Z,162578.31
2023-05-25T15:40:07.301Z,162555.47
2023-05-25T15:42:35.409Z,162547.41
2023-05-25T15:45:03.814Z,162538.00
2023-05-25T15:47:31.850Z,162525.88
2023-05-25T15:49:59.934Z,162548.72
2023-05-25T15:52:27.841Z,162547.41
2023-05-25T15:54:56.446Z,162567.56
2023-05-25T15:57:24.515Z,162552.78
2023-05-25T15:59:52.863Z,162542.00
2023-05-25T16:02:20.949Z,162535.28
2023-05-25T16:04:49.632Z,162505.72
2023-05-25T16:07:17.660Z,162517.81
2023-05-25T16:09:46.573Z,162521.88
2023-05-25T16:12:14.531Z,162538.00
2023-05-25T16:14:43.115Z,162520.50
2023-05-25T16:17:11.950Z,162511.09
2023-05-25T16:19:40.165Z,162520.50
2023-05-25T16:22:07.972Z,162515.16
2023-05-25T16:24:36.317Z,162527.22
2023-05-25T16:27:04.909Z,162520.50
2023-05-25T16:29:33.405Z,162520.50
2023-05-25T16:32:01.503Z,162513.75
2023-05-25T16:34:29.942Z,162503.03
2023-05-25T16:36:57.942Z,162481.53
2023-05-25T16:39:26.583Z,162485.53
2023-05-25T16:41:54.655Z,162447.91
2023-05-25T16:44:24.099Z,162442.50
2023-05-25T16:46:52.048Z,162441.16
2023-05-25T16:49:20.279Z,162431.78
2023-05-25T16:51:48.088Z,162422.38
2023-05-25T16:54:16.969Z,162406.22
2023-05-25T16:56:44.925Z,162375.25
2023-05-25T16:59:12.964Z,162398.16
2023-05-25T17:01:40.870Z,162394.16
2023-05-25T17:04:09.310Z,162384.66
2023-05-25T17:06:37.908Z,162391.44
2023-05-25T17:09:06.159Z,162395.47
2023-05-25T17:11:34.036Z,162372.59
2023-05-25T17:14:02.543Z,162381.97
2023-05-25T17:16:30.410Z,162387.38
2023-05-25T17:18:59.030Z,162381.97
2023-05-25T17:21:27.239Z,162372.59
2023-05-25T17:23:55.850Z,162341.63
2023-05-25T17:26:23.637Z,162342.97
2023-05-25T17:28:52.267Z,162333.59
2023-05-25T17:31:20.226Z,162316.13
2023-05-25T17:33:48.521Z,162325.53
2023-05-25T17:36:16.384Z,162309.41
2023-05-25T17:38:45.137Z,162282.53
2023-05-25T17:41:13.174Z,162252.97
2023-05-25T17:43:41.875Z,162254.28
2023-05-25T17:46:09.994Z,162223.34
2023-05-25T17:48:38.317Z,162208.56
2023-05-25T17:51:05.989Z,162176.31
2023-05-25T17:53:34.483Z,162153.47
2023-05-25T17:56:02.424Z,162144.03
2023-05-25T17:58:31.022Z,162135.97
2023-05-25T18:00:59.048Z,162131.97
2023-05-25T18:03:27.684Z,162090.31
2023-05-25T18:05:56.022Z,162083.59
2023-05-25T18:08:24.817Z,162059.38
2023-05-25T18:10:53.395Z,162007.03
2023-05-25T18:13:21.386Z,161988.19
2023-05-25T18:15:49.868Z,161953.22
2023-05-25T18:18:20.889Z,161950.56
2023-05-25T18:20:48.998Z,161933.13
2023-05-25T18:23:17.028Z,161912.97
2023-05-25T18:25:46.216Z,161904.91
2023-05-25T18:28:15.429Z,161896.81
2023-05-25T18:30:43.400Z,161883.44
2023-05-25T18:33:11.780Z,161872.66
2023-05-25T18:35:39.661Z,161859.22
2023-05-25T18:38:08.064Z,161833.75
2023-05-25T18:40:35.810Z,161796.13
2023-05-25T18:43:03.958Z,161778.69
2023-05-25T18:45:32.098Z,161758.56
2023-05-25T18:48:07.787Z,161737.06
2023-05-25T18:50:37.805Z,161715.53
2023-05-25T18:53:08.325Z,161712.81
2023-05-25T18:55:36.474Z,161694.06
2023-05-25T18:58:05.141Z,161660.50
2023-05-25T19:00:33.296Z,161626.94
2023-05-25T19:03:01.700Z,161610.84
2023-05-25T19:05:29.729Z,161593.41
2023-05-25T19:08:00.125Z,161593.41
2023-05-25T19:10:28.448Z,161585.31
2023-05-25T19:12:57.494Z,161585.31
2023-05-25T19:15:25.563Z,161563.84
2023-05-25T19:17:54.231Z,161551.81
2023-05-25T19:20:22.500Z,161538.38
2023-05-25T19:22:50.806Z,161514.22
2023-05-25T19:25:18.944Z,161499.47
2023-05-25T19:27:47.029Z,161473.94
2023-05-25T19:30:14.989Z,161460.53
2023-05-25T19:32:43.756Z,161451.16
2023-05-25T19:35:12.197Z,161422.97
2023-05-25T19:37:46.701Z,161406.84
2023-05-25T19:40:14.595Z,161370.63
2023-05-25T19:42:43.008Z,161353.22
2023-05-25T19:45:11.864Z,161333.09
2023-05-25T19:47:40.829Z,161292.84
2023-05-25T19:50:09.316Z,161263.34
2023-05-25T19:52:37.966Z,161224.44
2023-05-25T19:55:06.747Z,161215.03
2023-05-25T19:57:35.428Z,161204.31
2023-05-25T20:00:05.957Z,161206.97
2023-05-25T20:02:40.101Z,161205.66
2023-05-25T20:05:08.240Z,161209.66
2023-05-25T20:07:36.974Z,161196.28
2023-05-25T20:10:06.670Z,161169.47
2023-05-25T20:12:35.305Z,161129.22
2023-05-25T20:15:03.124Z,161125.22
2023-05-25T20:17:32.202Z,161089.00
2023-05-25T20:20:01.319Z,161086.34
2023-05-25T20:22:30.020Z,161091.72
2023-05-25T20:25:01.631Z,161087.66
2023-05-25T20:27:30.472Z,161058.19
2023-05-25T20:29:58.694Z,161055.53
2023-05-25T20:32:26.985Z,161052.81
2023-05-25T20:34:55.438Z,161067.56
2023-05-25T20:37:23.618Z,161079.63
2023-05-25T20:39:51.897Z,161074.25
2023-05-25T20:42:20.370Z,161062.22
2023-05-25T20:44:48.335Z,161063.56
2023-05-25T20:47:16.310Z,161059.50
2023-05-25T20:49:44.260Z,161063.56
2023-05-25T20:52:12.856Z,161048.81
2023-05-25T20:54:45.238Z,161042.13
2023-05-25T20:57:13.940Z,161058.19
2023-05-25T20:59:41.866Z,161063.56
2023-05-25T21:02:10.351Z,161059.50
2023-05-25T21:04:38.587Z,161062.22
2023-05-25T21:07:06.780Z,161063.56
2023-05-25T21:09:34.818Z,161048.81
2023-05-25T21:12:04.024Z,161047.50
2023-05-25T21:14:32.021Z,161075.59
2023-05-25T21:17:00.414Z,161062.22
2023-05-25T21:19:28.281Z,161044.78
2023-05-25T21:21:56.933Z,161036.75
2023-05-25T21:24:24.740Z,161030.03
2023-05-25T21:26:53.004Z,161015.31
2023-05-25T21:29:20.810Z,161005.94
2023-05-25T21:31:49.296Z,161004.56
2023-05-25T21:34:17.284Z,161015.31
2023-05-25T21:36:45.522Z,161005.94
2023-05-25T21:39:13.176Z,160997.91
2023-05-25T21:41:42.328Z,160989.81
2023-05-25T21:44:10.836Z,160984.50
2023-05-25T21:46:39.773Z,160975.09
2023-05-25T21:49:07.980Z,160965.66
2023-05-25T21:51:37.023Z,160963.00
2023-05-25T21:54:05.845Z,160973.75
2023-05-25T21:56:33.832Z,160958.97
2023-05-25T21:59:02.160Z,160967.00
2023-05-25T22:01:30.235Z,160944.22
2023-05-25T22:03:58.532Z,160949.59
2023-05-25T22:06:27.351Z,160944.22
2023-05-25T22:08:55.068Z,160938.84
2023-05-25T22:11:23.122Z,160929.50
2023-05-25T22:13:51.522Z,160913.44
2023-05-25T22:16:20.393Z,160918.75
2023-05-25T22:18:48.421Z,160917.41
2023-05-25T22:21:16.663Z,160901.34
2023-05-25T22:23:44.559Z,160906.72
2023-05-25T22:26:12.931Z,160902.69
2023-05-25T22:28:40.681Z,160879.91
2023-05-25T22:31:11.697Z,160898.66
2023-05-25T22:33:39.893Z,160898.66
2023-05-25T22:36:08.096Z,160898.66
2023-05-25T22:38:36.015Z,160894.66
2023-05-25T22:41:04.402Z,160895.97
2023-05-25T22:43:32.445Z,160892.00
2023-05-25T22:46:00.744Z,160890.63
2023-05-25T22:48:28.465Z,160882.59
2023-05-25T22:50:56.724Z,160875.88
2023-05-25T22:53:24.726Z,160882.59
2023-05-25T22:55:53.148Z,160883.91
2023-05-25T22:58:23.360Z,160883.91
2023-05-25T23:00:51.623Z,160885.28
2023-05-25T23:03:19.670Z,160881.25
2023-05-25T23:05:48.025Z,160887.94
2023-05-25T23:08:15.899Z,160897.31
2023-05-25T23:10:44.353Z,160874.53
2023-05-25T23:13:14.653Z,160878.59
2023-05-25T23:15:44.536Z,160865.19
2023-05-25T23:18:12.711Z,160863.88
2023-05-25T23:20:41.357Z,160839.72
2023-05-25T23:23:09.424Z,160833.00
2023-05-25T23:25:37.746Z,160812.91
2023-05-25T23:28:05.814Z,160816.94
2023-05-25T23:30:34.204Z,160810.25
2023-05-25T23:33:01.953Z,160792.88
2023-05-25T23:35:30.834Z,160794.19
2023-05-25T23:37:58.948Z,160778.09
2023-05-25T23:40:27.403Z,160766.06
2023-05-25T23:42:55.296Z,160752.66
2023-05-25T23:45:23.955Z,160739.28
2023-05-25T23:47:52.058Z,160741.94
2023-05-25T23:50:20.488Z,160728.53
2023-05-25T23:52:48.585Z,160716.50
2023-05-25T23:55:16.877Z,160711.13
2023-05-25T23:57:45.264Z,160712.47
